sensor_id;sensor_type;location;lat;lon;timestamp;P1;durP1;ratioP1;P2;durP2;ratioP2
76117;SDS011;64851;50.232;20.364;2024-01-10T00:00:34;42.90;;;13.90;;
76117;SDS011;64851;50.232;20.364;2024-01-10T00:03:49;50.00;;;15.30;;
76117;SDS011;64851;50.232;20.364;2024-01-10T00:06:44;58.60;;;20.10;;
76117;SDS011;64851;50.232;20.364;2024-01-10T00:09:39;61.00;;;18.60;;
76117;SDS011;64851;50.232;20.364;2024-01-10T00:12:34;53.10;;;16.70;;
76117;SDS011;64851;50.232;20.364;2024-01-10T00:15:18;38.80;;;16.40;;
76117;SDS011;64851;50.232;20.364;2024-01-10T00:18:01;54.80;;;18.70;;
76117;SDS011;64851;50.232;20.364;2024-01-10T00:20:43;62.20;;;21.30;;
76117;SDS011;64851;50.232;20.364;2024-01-10T00:23:25;56.00;;;21.50;;
76117;SDS011;64851;50.232;20.364;2024-01-10T00:26:06;61.30;;;20.40;;
76117;SDS011;64851;50.232;20.364;2024-01-10T00:28:56;52.00;;;18.60;;
76117;SDS011;64851;50.232;20.364;2024-01-10T00:31:38;51.90;;;17.00;;
76117;SDS011;64851;50.232;20.364;2024-01-10T00:34:28;66.00;;;21.40;;
76117;SDS011;64851;50.232;20.364;2024-01-10T00:37:03;49.30;;;16.20;;
76117;SDS011;64851;50.232;20.364;2024-01-10T00:39:53;37.70;;;14.80;;
76117;SDS011;64851;50.232;20.364;2024-01-10T00:45:16;71.30;;;24.20;;
76117;SDS011;64851;50.232;20.364;2024-01-10T00:48:12;66.30;;;23.30;;
76117;SDS011;64851;50.232;20.364;2024-01-10T00:50:47;48.10;;;18.60;;
76117;SDS011;64851;50.232;20.364;2024-01-10T00:53:42;76.30;;;25.90;;
76117;SDS011;64851;50.232;20.364;2024-01-10T00:56:37;74.80;;;26.10;;
76117;SDS011;64851;50.232;20.364;2024-01-10T00:59:11;70.60;;;25.10;;
76117;SDS011;64851;50.232;20.364;2024-01-10T01:02:00;74.30;;;27.10;;
76117;SDS011;64851;50.232;20.364;2024-01-10T01:04:34;68.60;;;24.20;;
76117;SDS011;64851;50.232;20.364;2024-01-10T01:07:23;68.50;;;23.00;;
76117;SDS011;64851;50.232;20.364;2024-01-10T01:09:57;63.70;;;22.90;;
76117;SDS011;64851;50.232;20.364;2024-01-10T01:12:53;56.30;;;20.10;;
76117;SDS011;64851;50.232;20.364;2024-01-10T01:15:48;63.90;;;21.60;;
76117;SDS011;64851;50.232;20.364;2024-01-10T01:18:24;67.40;;;21.90;;
76117;SDS011;64851;50.232;20.364;2024-01-10T01:21:12;58.70;;;18.50;;
76117;SDS011;64851;50.232;20.364;2024-01-10T01:23:46;61.30;;;19.40;;
76117;SDS011;64851;50.232;20.364;2024-01-10T01:26:36;55.10;;;17.90;;
76117;SDS011;64851;50.232;20.364;2024-01-10T01:29:11;62.50;;;19.90;;
76117;SDS011;64851;50.232;20.364;2024-01-10T01:34:34;73.20;;;21.30;;
76117;SDS011;64851;50.232;20.364;2024-01-10T01:39:56;46.70;;;15.70;;
76117;SDS011;64851;50.232;20.364;2024-01-10T01:42:45;52.50;;;17.60;;
76117;SDS011;64851;50.232;20.364;2024-01-10T01:45:34;40.40;;;15.80;;
76117;SDS011;64851;50.232;20.364;2024-01-10T01:48:29;44.00;;;15.10;;
76117;SDS011;64851;50.232;20.364;2024-01-10T01:51:05;48.80;;;18.50;;
76117;SDS011;64851;50.232;20.364;2024-01-10T01:54:02;52.60;;;17.90;;
76117;SDS011;64851;50.232;20.364;2024-01-10T01:56:40;50.00;;;17.80;;
76117;SDS011;64851;50.232;20.364;2024-01-10T01:59:37;56.40;;;19.00;;
76117;SDS011;64851;50.232;20.364;2024-01-10T02:02:32;51.40;;;17.70;;
76117;SDS011;64851;50.232;20.364;2024-01-10T02:05:08;49.80;;;19.00;;
76117;SDS011;64851;50.232;20.364;2024-01-10T02:07:57;43.60;;;17.00;;
76117;SDS011;64851;50.232;20.364;2024-01-10T02:10:32;41.90;;;14.00;;
76117;SDS011;64851;50.232;20.364;2024-01-10T02:13:27;42.80;;;14.80;;
76117;SDS011;64851;50.232;20.364;2024-01-10T02:16:09;49.70;;;15.70;;
76117;SDS011;64851;50.232;20.364;2024-01-10T02:18:52;49.00;;;16.00;;
76117;SDS011;64851;50.232;20.364;2024-01-10T02:21:33;40.30;;;14.60;;
76117;SDS011;64851;50.232;20.364;2024-01-10T02:24:14;46.80;;;15.60;;
76117;SDS011;64851;50.232;20.364;2024-01-10T02:26:55;48.30;;;15.10;;
76117;SDS011;64851;50.232;20.364;2024-01-10T02:29:37;42.80;;;16.40;;
76117;SDS011;64851;50.232;20.364;2024-01-10T02:32:18;57.60;;;16.70;;
76117;SDS011;64851;50.232;20.364;2024-01-10T02:35:00;49.10;;;16.00;;
76117;SDS011;64851;50.232;20.364;2024-01-10T02:37:41;41.90;;;14.30;;
76117;SDS011;64851;50.232;20.364;2024-01-10T02:40:28;44.30;;;15.40;;
76117;SDS011;64851;50.232;20.364;2024-01-10T02:43:09;44.10;;;16.00;;
76117;SDS011;64851;50.232;20.364;2024-01-10T02:45:59;47.70;;;17.10;;
76117;SDS011;64851;50.232;20.364;2024-01-10T02:48:34;55.40;;;17.10;;
76117;SDS011;64851;50.232;20.364;2024-01-10T02:51:23;58.90;;;16.80;;
76117;SDS011;64851;50.232;20.364;2024-01-10T02:54:07;57.60;;;17.20;;
76117;SDS011;64851;50.232;20.364;2024-01-10T02:56:55;50.50;;;16.40;;
76117;SDS011;64851;50.232;20.364;2024-01-10T02:59:30;51.60;;;17.60;;
76117;SDS011;64851;50.232;20.364;2024-01-10T03:04:52;47.40;;;16.10;;
76117;SDS011;64851;50.232;20.364;2024-01-10T03:07:41;41.20;;;14.50;;
76117;SDS011;64851;50.232;20.364;2024-01-10T03:10:16;39.80;;;15.40;;
76117;SDS011;64851;50.232;20.364;2024-01-10T03:13:04;37.10;;;13.70;;
76117;SDS011;64851;50.232;20.364;2024-01-10T03:15:39;47.90;;;15.40;;
76117;SDS011;64851;50.232;20.364;2024-01-10T03:18:26;51.30;;;15.60;;
76117;SDS011;64851;50.232;20.364;2024-01-10T03:21:02;42.10;;;16.80;;
76117;SDS011;64851;50.232;20.364;2024-01-10T03:23:57;54.20;;;17.30;;
76117;SDS011;64851;50.232;20.364;2024-01-10T03:26:41;46.80;;;16.30;;
76117;SDS011;64851;50.232;20.364;2024-01-10T03:29:22;54.40;;;17.80;;
76117;SDS011;64851;50.232;20.364;2024-01-10T03:32:04;44.00;;;17.70;;
76117;SDS011;64851;50.232;20.364;2024-01-10T03:34:47;52.00;;;17.90;;
76117;SDS011;64851;50.232;20.364;2024-01-10T03:37:29;50.40;;;17.90;;
76117;SDS011;64851;50.232;20.364;2024-01-10T03:40:11;46.50;;;15.40;;
76117;SDS011;64851;50.232;20.364;2024-01-10T03:42:52;39.00;;;13.20;;
76117;SDS011;64851;50.232;20.364;2024-01-10T03:45:34;29.50;;;11.30;;
76117;SDS011;64851;50.232;20.364;2024-01-10T03:48:15;44.10;;;15.50;;
76117;SDS011;64851;50.232;20.364;2024-01-10T03:50:57;34.10;;;12.60;;
76117;SDS011;64851;50.232;20.364;2024-01-10T03:53:39;51.20;;;18.20;;
76117;SDS011;64851;50.232;20.364;2024-01-10T03:58:56;53.60;;;18.90;;
76117;SDS011;64851;50.232;20.364;2024-01-10T04:01:50;53.80;;;17.20;;
76117;SDS011;64851;50.232;20.364;2024-01-10T04:04:48;47.60;;;18.00;;
76117;SDS011;64851;50.232;20.364;2024-01-10T04:07:26;50.60;;;16.10;;
76117;SDS011;64851;50.232;20.364;2024-01-10T04:10:15;42.00;;;16.30;;
76117;SDS011;64851;50.232;20.364;2024-01-10T04:12:50;42.80;;;15.40;;
76117;SDS011;64851;50.232;20.364;2024-01-10T04:15:38;44.30;;;15.40;;
76117;SDS011;64851;50.232;20.364;2024-01-10T04:18:14;14.80;;;5.50;;
76117;SDS011;64851;50.232;20.364;2024-01-10T04:21:02;26.70;;;11.80;;
76117;SDS011;64851;50.232;20.364;2024-01-10T04:23:37;37.70;;;15.10;;
76117;SDS011;64851;50.232;20.364;2024-01-10T04:26:26;36.60;;;14.00;;
76117;SDS011;64851;50.232;20.364;2024-01-10T04:29:01;49.40;;;15.20;;
76117;SDS011;64851;50.232;20.364;2024-01-10T04:31:57;47.40;;;14.50;;
76117;SDS011;64851;50.232;20.364;2024-01-10T04:34:51;48.00;;;16.00;;
76117;SDS011;64851;50.232;20.364;2024-01-10T04:37:48;42.00;;;17.50;;
76117;SDS011;64851;50.232;20.364;2024-01-10T04:40:23;46.40;;;14.70;;
76117;SDS011;64851;50.232;20.364;2024-01-10T04:43:10;42.50;;;15.80;;
76117;SDS011;64851;50.232;20.364;2024-01-10T04:45:45;42.50;;;13.90;;
76117;SDS011;64851;50.232;20.364;2024-01-10T04:48:34;38.30;;;13.20;;
76117;SDS011;64851;50.232;20.364;2024-01-10T04:51:09;43.20;;;14.70;;
76117;SDS011;64851;50.232;20.364;2024-01-10T04:53:59;45.70;;;15.60;;
76117;SDS011;64851;50.232;20.364;2024-01-10T04:56:33;51.00;;;15.50;;
76117;SDS011;64851;50.232;20.364;2024-01-10T04:59:22;33.60;;;13.60;;
76117;SDS011;64851;50.232;20.364;2024-01-10T05:02:04;46.10;;;18.60;;
76117;SDS011;64851;50.232;20.364;2024-01-10T05:04:45;42.80;;;17.20;;
76117;SDS011;64851;50.232;20.364;2024-01-10T05:07:28;53.10;;;19.00;;
76117;SDS011;64851;50.232;20.364;2024-01-10T05:10:16;47.80;;;16.40;;
76117;SDS011;64851;50.232;20.364;2024-01-10T05:12:51;44.20;;;16.50;;
76117;SDS011;64851;50.232;20.364;2024-01-10T05:15:39;56.20;;;19.30;;
76117;SDS011;64851;50.232;20.364;2024-01-10T05:18:15;43.90;;;16.00;;
76117;SDS011;64851;50.232;20.364;2024-01-10T05:21:04;51.30;;;15.60;;
76117;SDS011;64851;50.232;20.364;2024-01-10T05:23:39;42.40;;;14.70;;
76117;SDS011;64851;50.232;20.364;2024-01-10T05:26:27;41.00;;;14.80;;
76117;SDS011;64851;50.232;20.364;2024-01-10T05:29:03;38.00;;;13.70;;
76117;SDS011;64851;50.232;20.364;2024-01-10T05:31:52;46.10;;;15.90;;
76117;SDS011;64851;50.232;20.364;2024-01-10T05:34:28;60.50;;;21.00;;
76117;SDS011;64851;50.232;20.364;2024-01-10T05:37:16;50.20;;;17.10;;
76117;SDS011;64851;50.232;20.364;2024-01-10T05:39:52;56.20;;;18.00;;
76117;SDS011;64851;50.232;20.364;2024-01-10T05:42:40;48.60;;;18.20;;
76117;SDS011;64851;50.232;20.364;2024-01-10T05:45:16;45.90;;;18.20;;
76117;SDS011;64851;50.232;20.364;2024-01-10T05:48:05;60.00;;;19.20;;
76117;SDS011;64851;50.232;20.364;2024-01-10T05:50:47;45.30;;;17.50;;
76117;SDS011;64851;50.232;20.364;2024-01-10T05:53:30;57.10;;;17.40;;
76117;SDS011;64851;50.232;20.364;2024-01-10T05:56:14;20.00;;;8.00;;
76117;SDS011;64851;50.232;20.364;2024-01-10T05:58:55;52.40;;;19.00;;
76117;SDS011;64851;50.232;20.364;2024-01-10T06:01:37;35.60;;;12.90;;
76117;SDS011;64851;50.232;20.364;2024-01-10T06:04:18;41.90;;;15.20;;
76117;SDS011;64851;50.232;20.364;2024-01-10T06:07:00;46.10;;;16.90;;
76117;SDS011;64851;50.232;20.364;2024-01-10T06:09:48;50.40;;;18.40;;
76117;SDS011;64851;50.232;20.364;2024-01-10T06:12:23;61.20;;;20.90;;
76117;SDS011;64851;50.232;20.364;2024-01-10T06:15:11;53.70;;;18.20;;
76117;SDS011;64851;50.232;20.364;2024-01-10T06:17:52;42.30;;;14.10;;
76117;SDS011;64851;50.232;20.364;2024-01-10T06:20:40;53.80;;;18.90;;
76117;SDS011;64851;50.232;20.364;2024-01-10T06:23:15;49.30;;;17.10;;
76117;SDS011;64851;50.232;20.364;2024-01-10T06:26:02;56.30;;;19.50;;
76117;SDS011;64851;50.232;20.364;2024-01-10T06:28:38;57.90;;;19.40;;
76117;SDS011;64851;50.232;20.364;2024-01-10T06:31:25;55.50;;;21.30;;
76117;SDS011;64851;50.232;20.364;2024-01-10T06:36:49;54.20;;;16.00;;
76117;SDS011;64851;50.232;20.364;2024-01-10T06:39:30;54.20;;;21.10;;
76117;SDS011;64851;50.232;20.364;2024-01-10T06:42:10;52.20;;;19.20;;
76117;SDS011;64851;50.232;20.364;2024-01-10T06:44:53;60.60;;;19.40;;
76117;SDS011;64851;50.232;20.364;2024-01-10T06:47:47;54.50;;;21.70;;
76117;SDS011;64851;50.232;20.364;2024-01-10T06:50:42;61.30;;;21.30;;
76117;SDS011;64851;50.232;20.364;2024-01-10T06:53:38;56.50;;;20.10;;
76117;SDS011;64851;50.232;20.364;2024-01-10T06:56:19;62.70;;;20.50;;
76117;SDS011;64851;50.232;20.364;2024-01-10T06:59:01;68.30;;;22.30;;
76117;SDS011;64851;50.232;20.364;2024-01-10T07:01:42;64.00;;;21.70;;
76117;SDS011;64851;50.232;20.364;2024-01-10T07:04:22;65.20;;;22.50;;
76117;SDS011;64851;50.232;20.364;2024-01-10T07:07:05;71.70;;;22.80;;
76117;SDS011;64851;50.232;20.364;2024-01-10T07:09:52;51.10;;;17.40;;
76117;SDS011;64851;50.232;20.364;2024-01-10T07:12:27;70.40;;;25.50;;
76117;SDS011;64851;50.232;20.364;2024-01-10T07:15:15;64.70;;;25.30;;
76117;SDS011;64851;50.232;20.364;2024-01-10T07:17:50;61.00;;;22.90;;
76117;SDS011;64851;50.232;20.364;2024-01-10T07:20:45;63.30;;;23.10;;
76117;SDS011;64851;50.232;20.364;2024-01-10T07:23:40;46.60;;;17.70;;
76117;SDS011;64851;50.232;20.364;2024-01-10T07:26:17;61.00;;;20.20;;
76117;SDS011;64851;50.232;20.364;2024-01-10T07:29:08;67.70;;;22.50;;
76117;SDS011;64851;50.232;20.364;2024-01-10T07:31:44;65.40;;;24.00;;
76117;SDS011;64851;50.232;20.364;2024-01-10T07:34:40;61.60;;;22.60;;
76117;SDS011;64851;50.232;20.364;2024-01-10T07:37:14;59.00;;;18.10;;
76117;SDS011;64851;50.232;20.364;2024-01-10T07:40:04;63.40;;;21.30;;
76117;SDS011;64851;50.232;20.364;2024-01-10T07:42:42;67.40;;;22.50;;
76117;SDS011;64851;50.232;20.364;2024-01-10T07:45:30;71.90;;;22.40;;
76117;SDS011;64851;50.232;20.364;2024-01-10T07:48:12;41.90;;;16.50;;
76117;SDS011;64851;50.232;20.364;2024-01-10T07:50:54;70.90;;;24.80;;
76117;SDS011;64851;50.232;20.364;2024-01-10T07:53:36;69.20;;;21.90;;
76117;SDS011;64851;50.232;20.364;2024-01-10T07:56:23;47.40;;;19.60;;
76117;SDS011;64851;50.232;20.364;2024-01-10T07:58:58;71.90;;;22.30;;
76117;SDS011;64851;50.232;20.364;2024-01-10T08:01:54;61.40;;;22.30;;
76117;SDS011;64851;50.232;20.364;2024-01-10T08:04:31;60.20;;;19.90;;
76117;SDS011;64851;50.232;20.364;2024-01-10T08:07:18;92.60;;;29.80;;
76117;SDS011;64851;50.232;20.364;2024-01-10T08:09:54;88.70;;;30.20;;
76117;SDS011;64851;50.232;20.364;2024-01-10T08:12:42;80.20;;;23.80;;
76117;SDS011;64851;50.232;20.364;2024-01-10T08:15:25;98.10;;;31.20;;
76117;SDS011;64851;50.232;20.364;2024-01-10T08:18:11;88.80;;;29.90;;
76117;SDS011;64851;50.232;20.364;2024-01-10T08:20:52;61.40;;;23.70;;
76117;SDS011;64851;50.232;20.364;2024-01-10T08:23:39;88.60;;;29.20;;
76117;SDS011;64851;50.232;20.364;2024-01-10T08:26:14;100.40;;;35.50;;
76117;SDS011;64851;50.232;20.364;2024-01-10T08:29:08;104.70;;;35.10;;
76117;SDS011;64851;50.232;20.364;2024-01-10T08:32:04;110.60;;;38.00;;
76117;SDS011;64851;50.232;20.364;2024-01-10T08:34:39;97.40;;;33.30;;
76117;SDS011;64851;50.232;20.364;2024-01-10T08:37:28;93.60;;;32.60;;
76117;SDS011;64851;50.232;20.364;2024-01-10T08:40:04;80.90;;;26.90;;
76117;SDS011;64851;50.232;20.364;2024-01-10T08:42:59;80.90;;;25.50;;
76117;SDS011;64851;50.232;20.364;2024-01-10T08:45:54;85.10;;;28.60;;
76117;SDS011;64851;50.232;20.364;2024-01-10T08:48:30;65.20;;;22.70;;
76117;SDS011;64851;50.232;20.364;2024-01-10T08:51:17;86.10;;;30.30;;
76117;SDS011;64851;50.232;20.364;2024-01-10T08:53:52;82.10;;;29.50;;
76117;SDS011;64851;50.232;20.364;2024-01-10T08:56:42;72.90;;;24.50;;
76117;SDS011;64851;50.232;20.364;2024-01-10T08:59:18;80.60;;;28.10;;
76117;SDS011;64851;50.232;20.364;2024-01-10T09:02:15;89.90;;;30.80;;
76117;SDS011;64851;50.232;20.364;2024-01-10T09:05:11;67.80;;;27.20;;
76117;SDS011;64851;50.232;20.364;2024-01-10T09:07:48;88.90;;;32.40;;
76117;SDS011;64851;50.232;20.364;2024-01-10T09:10:37;94.90;;;34.00;;
76117;SDS011;64851;50.232;20.364;2024-01-10T09:13:12;93.00;;;32.90;;
76117;SDS011;64851;50.232;20.364;2024-01-10T09:16:07;94.70;;;34.40;;
76117;SDS011;64851;50.232;20.364;2024-01-10T09:18:43;94.10;;;33.50;;
76117;SDS011;64851;50.232;20.364;2024-01-10T09:21:41;96.00;;;32.00;;
76117;SDS011;64851;50.232;20.364;2024-01-10T09:24:37;94.30;;;33.30;;
76117;SDS011;64851;50.232;20.364;2024-01-10T09:27:19;94.00;;;32.10;;
76117;SDS011;64851;50.232;20.364;2024-01-10T09:30:07;91.50;;;30.80;;
76117;SDS011;64851;50.232;20.364;2024-01-10T09:32:49;80.60;;;27.40;;
76117;SDS011;64851;50.232;20.364;2024-01-10T09:35:37;77.20;;;28.40;;
76117;SDS011;64851;50.232;20.364;2024-01-10T09:38:12;104.50;;;40.80;;
76117;SDS011;64851;50.232;20.364;2024-01-10T09:41:00;97.60;;;32.70;;
76117;SDS011;64851;50.232;20.364;2024-01-10T09:43:38;92.30;;;28.20;;
76117;SDS011;64851;50.232;20.364;2024-01-10T09:46:26;81.90;;;30.20;;
76117;SDS011;64851;50.232;20.364;2024-01-10T09:49:11;83.00;;;28.20;;
76117;SDS011;64851;50.232;20.364;2024-01-10T09:51:59;79.30;;;29.00;;
76117;SDS011;64851;50.232;20.364;2024-01-10T09:54:39;79.90;;;27.10;;
76117;SDS011;64851;50.232;20.364;2024-01-10T09:57:27;78.50;;;27.40;;
76117;SDS011;64851;50.232;20.364;2024-01-10T10:00:03;103.50;;;37.30;;
76117;SDS011;64851;50.232;20.364;2024-01-10T10:02:54;89.10;;;35.70;;
76117;SDS011;64851;50.232;20.364;2024-01-10T10:05:38;92.80;;;32.40;;
76117;SDS011;64851;50.232;20.364;2024-01-10T10:08:20;79.10;;;28.90;;
76117;SDS011;64851;50.232;20.364;2024-01-10T10:11:06;80.80;;;28.70;;
76117;SDS011;64851;50.232;20.364;2024-01-10T10:13:50;74.40;;;29.00;;
76117;SDS011;64851;50.232;20.364;2024-01-10T10:16:32;62.70;;;26.40;;
76117;SDS011;64851;50.232;20.364;2024-01-10T10:19:22;143.80;;;40.60;;
76117;SDS011;64851;50.232;20.364;2024-01-10T10:22:14;163.30;;;45.90;;
76117;SDS011;64851;50.232;20.364;2024-01-10T10:25:02;73.80;;;28.30;;
76117;SDS011;64851;50.232;20.364;2024-01-10T10:27:36;74.20;;;27.90;;
76117;SDS011;64851;50.232;20.364;2024-01-10T10:30:24;82.50;;;28.60;;
76117;SDS011;64851;50.232;20.364;2024-01-10T10:33:01;73.60;;;29.80;;
76117;SDS011;64851;50.232;20.364;2024-01-10T10:35:50;71.60;;;27.40;;
76117;SDS011;64851;50.232;20.364;2024-01-10T10:38:24;80.60;;;29.60;;
76117;SDS011;64851;50.232;20.364;2024-01-10T10:41:19;72.80;;;28.30;;
76117;SDS011;64851;50.232;20.364;2024-01-10T10:44:16;80.80;;;27.40;;
76117;SDS011;64851;50.232;20.364;2024-01-10T10:46:55;68.70;;;26.20;;
76117;SDS011;64851;50.232;20.364;2024-01-10T10:49:53;75.20;;;26.20;;
76117;SDS011;64851;50.232;20.364;2024-01-10T10:52:30;87.10;;;32.10;;
76117;SDS011;64851;50.232;20.364;2024-01-10T10:55:20;76.50;;;29.70;;
76117;SDS011;64851;50.232;20.364;2024-01-10T10:57:57;83.10;;;30.50;;
76117;SDS011;64851;50.232;20.364;2024-01-10T11:00:52;70.80;;;30.10;;
76117;SDS011;64851;50.232;20.364;2024-01-10T11:03:27;83.90;;;32.70;;
76117;SDS011;64851;50.232;20.364;2024-01-10T11:06:16;82.70;;;32.30;;
76117;SDS011;64851;50.232;20.364;2024-01-10T11:08:58;83.60;;;32.40;;
76117;SDS011;64851;50.232;20.364;2024-01-10T11:24:48;71.60;;;27.50;;
76117;SDS011;64851;50.232;20.364;2024-01-10T11:27:36;81.90;;;29.10;;
76117;SDS011;64851;50.232;20.364;2024-01-10T11:30:12;81.40;;;29.00;;
76117;SDS011;64851;50.232;20.364;2024-01-10T11:33:01;80.70;;;32.20;;
76117;SDS011;64851;50.232;20.364;2024-01-10T11:39:07;82.20;;;29.00;;
76117;SDS011;64851;50.232;20.364;2024-01-10T11:41:46;82.20;;;32.00;;
76117;SDS011;64851;50.232;20.364;2024-01-10T11:44:34;85.50;;;34.20;;
76117;SDS011;64851;50.232;20.364;2024-01-10T11:47:21;96.40;;;38.40;;
76117;SDS011;64851;50.232;20.364;2024-01-10T11:50:18;111.80;;;43.60;;
76117;SDS011;64851;50.232;20.364;2024-01-10T11:52:54;109.90;;;43.00;;
76117;SDS011;64851;50.232;20.364;2024-01-10T11:55:49;93.40;;;37.30;;
76117;SDS011;64851;50.232;20.364;2024-01-10T11:58:25;73.30;;;28.70;;
76117;SDS011;64851;50.232;20.364;2024-01-10T12:01:13;97.30;;;35.70;;
76117;SDS011;64851;50.232;20.364;2024-01-10T12:03:50;102.30;;;39.40;;
76117;SDS011;64851;50.232;20.364;2024-01-10T12:06:57;78.60;;;30.00;;
76117;SDS011;64851;50.232;20.364;2024-01-10T12:09:53;68.80;;;26.80;;
76117;SDS011;64851;50.232;20.364;2024-01-10T12:12:48;97.50;;;35.70;;
76117;SDS011;64851;50.232;20.364;2024-01-10T12:15:44;86.00;;;35.30;;
76117;SDS011;64851;50.232;20.364;2024-01-10T12:18:19;97.00;;;33.30;;
76117;SDS011;64851;50.232;20.364;2024-01-10T12:21:07;99.00;;;36.90;;
76117;SDS011;64851;50.232;20.364;2024-01-10T12:23:47;86.50;;;32.60;;
76117;SDS011;64851;50.232;20.364;2024-01-10T12:26:43;108.30;;;39.00;;
76117;SDS011;64851;50.232;20.364;2024-01-10T12:29:27;109.60;;;38.20;;
76117;SDS011;64851;50.232;20.364;2024-01-10T12:32:16;107.60;;;37.90;;
76117;SDS011;64851;50.232;20.364;2024-01-10T12:34:54;102.60;;;36.50;;
76117;SDS011;64851;50.232;20.364;2024-01-10T12:37:55;102.40;;;38.30;;
76117;SDS011;64851;50.232;20.364;2024-01-10T12:40:31;118.50;;;42.20;;
76117;SDS011;64851;50.232;20.364;2024-01-10T12:43:19;113.20;;;39.30;;
76117;SDS011;64851;50.232;20.364;2024-01-10T12:49:00;109.70;;;42.40;;
76117;SDS011;64851;50.232;20.364;2024-01-10T12:51:37;316.90;;;108.10;;
76117;SDS011;64851;50.232;20.364;2024-01-10T12:54:24;109.50;;;44.60;;
76117;SDS011;64851;50.232;20.364;2024-01-10T12:56:59;107.20;;;42.40;;
76117;SDS011;64851;50.232;20.364;2024-01-10T12:59:47;104.00;;;38.60;;
76117;SDS011;64851;50.232;20.364;2024-01-10T13:02:23;107.30;;;40.20;;
76117;SDS011;64851;50.232;20.364;2024-01-10T13:05:17;103.90;;;38.30;;
76117;SDS011;64851;50.232;20.364;2024-01-10T13:08:12;89.90;;;32.40;;
76117;SDS011;64851;50.232;20.364;2024-01-10T13:10:48;113.20;;;40.90;;
76117;SDS011;64851;50.232;20.364;2024-01-10T13:13:36;105.30;;;41.90;;
76117;SDS011;64851;50.232;20.364;2024-01-10T13:16:12;84.60;;;32.50;;
76117;SDS011;64851;50.232;20.364;2024-01-10T13:19:00;117.40;;;42.60;;
76117;SDS011;64851;50.232;20.364;2024-01-10T13:21:36;106.70;;;40.80;;
76117;SDS011;64851;50.232;20.364;2024-01-10T13:24:24;78.30;;;30.80;;
76117;SDS011;64851;50.232;20.364;2024-01-10T13:26:59;75.30;;;28.50;;
76117;SDS011;64851;50.232;20.364;2024-01-10T13:29:47;60.30;;;23.90;;
76117;SDS011;64851;50.232;20.364;2024-01-10T13:32:22;108.50;;;40.50;;
76117;SDS011;64851;50.232;20.364;2024-01-10T13:35:17;111.80;;;42.50;;
76117;SDS011;64851;50.232;20.364;2024-01-10T13:37:53;119.60;;;42.80;;
76117;SDS011;64851;50.232;20.364;2024-01-10T13:40:40;110.60;;;42.30;;
76117;SDS011;64851;50.232;20.364;2024-01-10T13:43:22;119.40;;;42.50;;
76117;SDS011;64851;50.232;20.364;2024-01-10T13:48:45;97.60;;;38.50;;
76117;SDS011;64851;50.232;20.364;2024-01-10T13:51:26;104.70;;;39.60;;
76117;SDS011;64851;50.232;20.364;2024-01-10T13:54:09;63.90;;;25.70;;
76117;SDS011;64851;50.232;20.364;2024-01-10T13:56:50;101.50;;;39.30;;
76117;SDS011;64851;50.232;20.364;2024-01-10T13:59:36;99.30;;;39.20;;
76117;SDS011;64851;50.232;20.364;2024-01-10T14:02:23;106.10;;;40.50;;
76117;SDS011;64851;50.232;20.364;2024-01-10T14:05:05;97.30;;;36.20;;
76117;SDS011;64851;50.232;20.364;2024-01-10T14:07:48;87.60;;;33.60;;
76117;SDS011;64851;50.232;20.364;2024-01-10T14:10:30;93.60;;;36.00;;
76117;SDS011;64851;50.232;20.364;2024-01-10T14:13:13;100.00;;;37.00;;
76117;SDS011;64851;50.232;20.364;2024-01-10T14:15:55;105.70;;;39.30;;
76117;SDS011;64851;50.232;20.364;2024-01-10T14:18:36;107.90;;;39.00;;
76117;SDS011;64851;50.232;20.364;2024-01-10T14:21:18;88.60;;;35.40;;
76117;SDS011;64851;50.232;20.364;2024-01-10T14:23:59;104.50;;;40.10;;
76117;SDS011;64851;50.232;20.364;2024-01-10T14:26:42;115.50;;;40.00;;
76117;SDS011;64851;50.232;20.364;2024-01-10T14:29:29;108.20;;;41.30;;
76117;SDS011;64851;50.232;20.364;2024-01-10T14:32:11;111.20;;;43.10;;
76117;SDS011;64851;50.232;20.364;2024-01-10T14:34:52;115.70;;;43.00;;
76117;SDS011;64851;50.232;20.364;2024-01-10T14:37:35;119.90;;;42.10;;
76117;SDS011;64851;50.232;20.364;2024-01-10T14:40:16;113.80;;;41.60;;
76117;SDS011;64851;50.232;20.364;2024-01-10T14:42:58;100.00;;;40.20;;
76117;SDS011;64851;50.232;20.364;2024-01-10T14:45:38;99.90;;;37.90;;
76117;SDS011;64851;50.232;20.364;2024-01-10T14:48:26;111.70;;;39.30;;
76117;SDS011;64851;50.232;20.364;2024-01-10T14:51:21;100.60;;;37.60;;
76117;SDS011;64851;50.232;20.364;2024-01-10T14:54:16;101.80;;;37.20;;
76117;SDS011;64851;50.232;20.364;2024-01-10T14:56:53;100.80;;;36.70;;
76117;SDS011;64851;50.232;20.364;2024-01-10T14:59:49;105.10;;;38.70;;
76117;SDS011;64851;50.232;20.364;2024-01-10T15:02:25;105.90;;;39.40;;
76117;SDS011;64851;50.232;20.364;2024-01-10T15:05:19;93.40;;;33.00;;
76117;SDS011;64851;50.232;20.364;2024-01-10T15:08:15;100.80;;;33.80;;
76117;SDS011;64851;50.232;20.364;2024-01-10T15:10:58;94.50;;;36.80;;
76117;SDS011;64851;50.232;20.364;2024-01-10T15:13:39;91.50;;;34.10;;
76117;SDS011;64851;50.232;20.364;2024-01-10T15:16:23;106.50;;;37.60;;
76117;SDS011;64851;50.232;20.364;2024-01-10T15:19:03;99.70;;;39.70;;
76117;SDS011;64851;50.232;20.364;2024-01-10T15:21:46;107.70;;;37.90;;
76117;SDS011;64851;50.232;20.364;2024-01-10T15:24:27;121.90;;;42.40;;
76117;SDS011;64851;50.232;20.364;2024-01-10T15:27:09;121.70;;;42.30;;
76117;SDS011;64851;50.232;20.364;2024-01-10T15:29:52;128.90;;;45.10;;
76117;SDS011;64851;50.232;20.364;2024-01-10T15:32:49;106.90;;;42.80;;
76117;SDS011;64851;50.232;20.364;2024-01-10T15:38:12;104.60;;;37.00;;
76117;SDS011;64851;50.232;20.364;2024-01-10T15:40:53;105.30;;;38.20;;
76117;SDS011;64851;50.232;20.364;2024-01-10T15:43:35;108.40;;;38.30;;
76117;SDS011;64851;50.232;20.364;2024-01-10T15:46:19;118.10;;;39.20;;
76117;SDS011;64851;50.232;20.364;2024-01-10T15:49:04;112.70;;;42.90;;
76117;SDS011;64851;50.232;20.364;2024-01-10T15:51:53;124.30;;;42.80;;
76117;SDS011;64851;50.232;20.364;2024-01-10T15:54:29;108.20;;;38.40;;
76117;SDS011;64851;50.232;20.364;2024-01-10T15:57:17;106.60;;;38.20;;
76117;SDS011;64851;50.232;20.364;2024-01-10T15:59:59;105.00;;;37.90;;
76117;SDS011;64851;50.232;20.364;2024-01-10T16:02:43;99.00;;;36.20;;
76117;SDS011;64851;50.232;20.364;2024-01-10T16:05:25;109.10;;;38.60;;
76117;SDS011;64851;50.232;20.364;2024-01-10T16:08:06;110.30;;;40.40;;
76117;SDS011;64851;50.232;20.364;2024-01-10T16:10:48;92.60;;;35.30;;
76117;SDS011;64851;50.232;20.364;2024-01-10T16:13:29;91.00;;;35.50;;
76117;SDS011;64851;50.232;20.364;2024-01-10T16:16:11;112.20;;;40.00;;
76117;SDS011;64851;50.232;20.364;2024-01-10T16:18:53;119.90;;;40.90;;
76117;SDS011;64851;50.232;20.364;2024-01-10T16:21:36;93.00;;;32.60;;
76117;SDS011;64851;50.232;20.364;2024-01-10T16:24:23;86.00;;;31.40;;